Time;durP1;ratioP1;P1;durP2;ratioP2;P2;SDS_P1;SDS_P2;PMS_P1;PMS_P2;Temp;Humidity;BMP_temperature;BMP_pressure;BME280_temperature;BME280_humidity;BME280_pressure;Samples;Min_cycle;Max_cycle;Signal;HPM_P1;HPM_P2
2022/06/28 00:01:36;;;;;;;3.17;3.03;;;22.50;60.70;;;;;;20402;6882;308428;-90
2022/06/28 00:04:01;;;;;;;3.10;2.90;;;22.60;59.90;;;;;;20636;6882;121503;-91
2022/06/28 00:06:27;;;;;;;2.93;2.70;;;22.40;60.40;;;;;;20640;6882;118451;-90
2022/06/28 00:08:53;;;;;;;3.33;3.00;;;22.20;60.80;;;;;;20436;6882;282314;-90
2022/06/28 00:11:19;;;;;;;3.10;2.90;;;22.20;60.80;;;;;;20426;6880;279010;-90
2022/06/28 00:13:46;;;;;;;3.27;2.70;;;22.30;60.90;;;;;;20627;6882;118461;-90
2022/06/28 00:16:16;;;;;;;2.97;2.78;;;22.30;60.30;;;;;;20434;6882;329038;-90
2022/06/28 00:18:37;;;;;;;3.35;3.00;;;22.40;60.00;;;;;;20418;6882;312446;-89
2022/06/28 00:21:03;;;;;;;3.80;2.57;;;22.60;59.20;;;;;;20634;6882;117223;-90
2022/06/28 00:23:28;;;;;;;3.08;2.80;;;22.40;59.80;;;;;;20617;6882;117974;-90
2022/06/28 00:25:54;;;;;;;3.30;3.10;;;22.00;60.60;;;;;;20636;6882;118025;-90
2022/06/28 00:28:19;;;;;;;3.47;2.50;;;21.70;61.20;;;;;;20426;6882;311941;-90
2022/06/28 00:30:46;;;;;;;2.53;2.40;;;22.20;59.60;;;;;;20413;6882;308866;-90
2022/06/28 00:33:12;;;;;;;4.10;2.60;;;22.20;59.60;;;;;;20634;6882;117316;-91
2022/06/28 00:35:37;;;;;;;3.20;2.90;;;22.10;60.00;;;;;;20325;6882;300349;-91
2022/06/28 00:38:02;;;;;;;3.13;2.93;;;22.10;60.10;;;;;;20396;6882;308858;-91
2022/06/28 00:40:29;;;;;;;2.97;2.73;;;22.30;59.90;;;;;;20394;6882;309119;-91
2022/06/28 00:42:54;;;;;;;3.60;3.00;;;22.50;59.30;;;;;;20399;6882;278753;-90
2022/06/28 00:45:21;;;;;;;3.00;2.80;;;22.30;59.20;;;;;;20631;6882;117322;-92
2022/06/28 00:47:46;;;;;;;3.45;3.25;;;22.30;59.20;;;;;;20409;6882;317578;-90
2022/06/28 00:50:12;;;;;;;3.60;3.30;;;22.30;59.10;;;;;;20428;6882;311399;-90
2022/06/28 00:52:37;;;;;;;3.20;2.90;;;22.30;58.60;;;;;;20581;6899;118128;-90
2022/06/28 00:55:03;;;;;;;3.50;3.20;;;22.10;59.30;;;;;;20334;6882;285011;-93
2022/06/28 00:57:29;;;;;;;5.60;3.10;;;22.00;59.20;;;;;;20413;6882;284282;-90
2022/06/28 00:59:54;;;;;;;2.93;2.70;;;22.10;59.00;;;;;;20410;6882;308930;-91
2022/06/28 01:02:20;;;;;;;3.73;2.27;;;22.10;58.50;;;;;;20632;6882;118098;-91
2022/06/28 01:04:47;;;;;;;2.73;2.50;;;21.90;59.40;;;;;;20647;6882;117433;-90
2022/06/28 01:07:12;;;;;;;2.93;2.73;;;21.50;60.30;;;;;;20431;6882;308516;-90
2022/06/28 01:09:38;;;;;;;2.90;2.17;;;21.50;60.00;;;;;;20636;6882;117793;-88
2022/06/28 01:25:54;;;;;;;464.27;11.77;;;22.10;59.30;;;;;;20997;6785;67034;31
2022/06/28 01:28:20;;;;;;;341.27;9.40;;;21.80;60.00;;;;;;20977;6794;116012;31
2022/06/28 01:30:46;;;;;;;148.07;7.80;;;21.40;60.90;;;;;;20714;6798;307507;31
2022/06/28 01:33:11;;;;;;;64.90;6.00;;;21.40;61.40;;;;;;20721;6867;116592;31
2022/06/28 01:35:37;;;;;;;119.40;6.27;;;21.20;61.80;;;;;;20717;6859;116649;31
2022/06/28 01:38:03;;;;;;;44.03;4.93;;;20.90;62.80;;;;;;20754;6866;117158;31
2022/06/28 01:40:28;;;;;;;90.78;6.50;;;20.60;63.60;;;;;;20735;6866;116377;31
2022/06/28 01:42:53;;;;;;;8.60;4.80;;;20.50;64.50;;;;;;20676;6866;117211;31
2022/06/28 01:45:19;;;;;;;10.23;4.77;;;20.40;65.20;;;;;;20683;6866;118565;31
2022/06/28 01:47:45;;;;;;;5.72;5.00;;;20.30;65.70;;;;;;20436;6866;281750;31
2022/06/28 01:50:10;;;;;;;8.57;5.77;;;20.60;65.30;;;;;;20432;6874;339534;31
2022/06/28 01:52:36;;;;;;;6.70;6.10;;;21.10;64.00;;;;;;20468;6867;281804;31
2022/06/28 01:55:01;;;;;;;5.03;4.60;;;21.40;62.80;;;;;;20665;6866;117621;31
2022/06/28 01:57:27;;;;;;;5.50;4.00;;;21.40;63.10;;;;;;20651;6876;117286;31
2022/06/28 01:59:52;;;;;;;4.57;4.18;;;21.20;64.00;;;;;;20421;6874;280709;31
2022/06/28 02:02:18;;;;;;;4.57;3.80;;;21.30;63.70;;;;;;20638;6863;117365;31
2022/06/28 02:04:43;;;;;;;4.30;4.00;;;21.30;63.90;;;;;;20688;6863;117204;31
2022/06/28 02:07:09;;;;;;;4.37;4.03;;;21.20;64.20;;;;;;20683;6865;118406;31
2022/06/28 02:09:36;;;;;;;5.03;4.63;;;21.00;64.40;;;;;;20448;6862;308892;31
2022/06/28 02:12:01;;;;;;;4.90;4.60;;;21.30;63.80;;;;;;20480;6862;309966;31
2022/06/28 02:14:27;;;;;;;6.67;4.40;;;21.60;62.70;;;;;;20675;6861;117263;31
2022/06/28 02:16:53;;;;;;;6.30;4.50;;;21.60;62.90;;;;;;20495;6861;280295;31
2022/06/28 02:19:18;;;;;;;6.13;4.63;;;21.70;62.50;;;;;;20436;6875;339170;31
2022/06/28 02:21:44;;;;;;;4.27;4.07;;;21.90;61.80;;;;;;20643;6860;117187;31
2022/06/28 02:24:11;;;;;;;4.30;3.90;;;21.70;62.10;;;;;;20465;6868;309433;31
2022/06/28 02:26:36;;;;;;;4.43;4.13;;;21.80;61.60;;;;;;20666;6868;117102;31
2022/06/28 02:29:03;;;;;;;13.13;4.90;;;21.70;62.10;;;;;;20626;6883;117090;31
2022/06/28 02:31:29;;;;;;;5.67;5.10;;;21.40;62.80;;;;;;20412;6885;310926;31
2022/06/28 02:33:54;;;;;;;5.17;4.70;;;21.60;62.50;;;;;;20493;6870;279765;31
2022/06/28 02:41:50;;;;;;;5.27;4.87;;;22.30;60.00;;;;;;19429;7219;314368;31
2022/06/28 02:44:16;;;;;;;5.80;4.40;;;22.40;59.90;;;;;;19649;7219;119794;31
2022/06/28 02:46:41;;;;;;;4.87;4.40;;;22.20;60.40;;;;;;19461;7219;291758;31
2022/06/28 02:49:07;;;;;;;6.47;5.30;;;22.20;60.50;;;;;;19425;7219;337549;31
2022/06/28 02:51:32;;;;;;;5.43;4.27;;;22.30;59.60;;;;;;19392;7219;294492;31
2022/06/28 02:53:58;;;;;;;4.27;3.83;;;22.40;59.70;;;;;;19436;6864;293131;31
2022/06/28 02:56:25;;;;;;;4.07;3.20;;;22.40;59.20;;;;;;20492;6859;282825;31
2022/06/28 02:58:51;;;;;;;5.07;3.20;;;22.40;58.20;;;;;;20487;6859;278836;31
2022/06/28 03:01:16;;;;;;;5.85;2.92;;;22.40;57.60;;;;;;20698;6859;116946;31
2022/06/28 03:03:42;;;;;;;4.10;2.40;;;22.10;58.60;;;;;;20656;6859;129219;31
2022/06/28 03:06:07;;;;;;;3.40;2.53;;;21.70;59.80;;;;;;20680;6867;117651;31
2022/06/28 03:08:33;;;;;;;4.32;2.47;;;21.40;60.60;;;;;;20688;6862;117175;31
2022/06/28 03:10:58;;;;;;;3.23;3.03;;;21.10;61.20;;;;;;20430;6874;280142;31
2022/06/28 03:13:24;;;;;;;4.70;2.80;;;21.20;60.50;;;;;;20697;6859;117555;31
2022/06/28 03:15:49;;;;;;;2.97;2.75;;;21.20;60.70;;;;;;20466;6859;296046;31
2022/06/28 03:18:15;;;;;;;3.80;2.60;;;21.40;59.90;;;;;;20669;6867;123331;31
2022/06/28 03:20:40;;;;;;;4.77;2.80;;;21.30;60.30;;;;;;20418;6882;280932;31
2022/06/28 03:23:07;;;;;;;3.50;3.30;;;21.40;59.40;;;;;;20403;6883;311445;31
2022/06/28 03:25:33;;;;;;;5.10;4.20;;;21.60;59.00;;;;;;20459;6867;280310;31
2022/06/28 03:27:58;;;;;;;5.60;3.80;;;21.80;58.80;;;;;;20673;6854;118419;31
2022/06/28 03:30:24;;;;;;;5.57;3.30;;;21.60;59.40;;;;;;20717;6854;118525;31
2022/06/28 03:32:49;;;;;;;3.72;3.42;;;21.30;60.30;;;;;;20506;6854;311208;31
2022/06/28 03:35:16;;;;;;;4.90;4.50;;;21.30;60.20;;;;;;20642;6854;118394;31
2022/06/28 03:37:42;;;;;;;6.90;6.20;;;21.30;60.50;;;;;;20467;6854;279606;31
2022/06/28 03:40:08;;;;;;;7.20;5.40;;;21.40;60.10;;;;;;20495;6854;280724;31
2022/06/28 03:42:33;;;;;;;7.00;6.30;;;21.60;60.00;;;;;;20503;6854;310618;31
2022/06/28 03:44:59;;;;;;;8.57;7.97;;;21.80;59.90;;;;;;20701;6854;120364;31
2022/06/28 03:47:24;;;;;;;7.80;6.83;;;21.60;60.20;;;;;;20717;6853;117614;31
2022/06/28 03:49:51;;;;;;;7.82;7.22;;;21.40;61.10;;;;;;20476;6854;286952;31
2022/06/28 03:52:17;;;;;;;6.83;6.23;;;21.40;61.10;;;;;;20718;6854;117373;31
2022/06/28 03:54:42;;;;;;;7.15;6.55;;;21.30;61.40;;;;;;20508;6854;336619;31
2022/06/28 03:57:08;;;;;;;7.40;6.80;;;21.50;61.20;;;;;;20718;6854;119757;31
2022/06/28 03:59:33;;;;;;;8.10;7.30;;;21.40;61.40;;;;;;20483;6854;309365;31
2022/06/28 04:01:59;;;;;;;8.18;7.37;;;21.50;61.10;;;;;;20488;6854;310844;31
2022/06/28 04:04:24;;;;;;;7.43;6.72;;;21.70;60.50;;;;;;20504;6854;309206;31
2022/06/28 04:06:50;;;;;;;7.80;6.10;;;21.90;60.10;;;;;;20504;6854;299455;31
2022/06/28 04:09:17;;;;;;;6.10;5.53;;;22.00;59.70;;;;;;20720;6854;117186;31
2022/06/28 04:11:41;;;;;;;13.00;8.85;;;21.80;60.30;;;;;;20470;6854;311365;31
2022/06/28 04:14:07;;;;;;;12.03;8.17;;;21.80;60.20;;;;;;20514;6854;313153;31
2022/06/28 04:16:32;;;;;;;8.87;7.13;;;22.00;60.00;;;;;;20725;6854;121773;31
2022/06/28 04:18:58;;;;;;;7.40;6.80;;;21.70;60.30;;;;;;20506;6854;338452;31
2022/06/28 04:21:23;;;;;;;6.53;5.53;;;21.80;60.40;;;;;;20718;6854;117679;31
2022/06/28 04:23:49;;;;;;;9.00;6.30;;;21.60;60.80;;;;;;20483;6854;309764;31
2022/06/28 04:26:14;;;;;;;5.97;5.50;;;21.70;60.40;;;;;;20512;6854;338107;31
2022/06/28 04:28:40;;;;;;;6.00;5.50;;;21.90;60.10;;;;;;20521;6854;279435;31
2022/06/28 04:31:06;;;;;;;6.45;6.05;;;22.10;59.70;;;;;;20475;6854;308735;31
2022/06/28 04:33:33;;;;;;;7.03;6.57;;;22.20;59.20;;;;;;20493;6854;294029;31
2022/06/28 04:35:58;;;;;;;5.37;4.90;;;22.30;59.00;;;;;;20502;6854;312471;31
2022/06/28 04:38:23;;;;;;;5.80;3.77;;;22.40;58.60;;;;;;20721;6854;116909;31
2022/06/28 04:40:49;;;;;;;165.57;8.57;;;22.10;59.30;;;;;;20701;6854;117146;31
2022/06/28 04:43:16;;;;;;;12.23;4.12;;;21.80;60.20;;;;;;20511;6854;309241;31
2022/06/28 04:45:41;;;;;;;27.10;5.12;;;21.80;60.00;;;;;;20489;6854;338090;31
2022/06/28 04:48:07;;;;;;;6.03;4.45;;;22.00;58.80;;;;;;20503;6854;311431;31
2022/06/28 04:50:32;;;;;;;6.03;3.90;;;22.10;58.70;;;;;;20708;6854;121205;31
2022/06/28 04:52:58;;;;;;;4.05;3.67;;;21.90;59.40;;;;;;20506;6854;279519;31
2022/06/28 04:55:24;;;;;;;3.53;3.13;;;21.80;58.90;;;;;;20721;6854;116960;31
2022/06/28 04:57:49;;;;;;;3.40;3.20;;;21.70;59.80;;;;;;20681;6854;119422;31
2022/06/28 05:00:15;;;;;;;3.77;2.53;;;21.40;60.50;;;;;;20713;6853;119402;31
2022/06/28 05:02:40;;;;;;;3.67;2.67;;;21.20;61.00;;;;;;20510;6854;309298;31
2022/06/28 05:05:06;;;;;;;4.40;2.37;;;21.40;59.70;;;;;;20505;6854;304810;31
2022/06/28 05:07:32;;;;;;;2.60;2.37;;;21.70;58.20;;;;;;20701;6854;117209;31
2022/06/28 05:09:57;;;;;;;1.97;1.87;;;21.70;58.50;;;;;;20712;6854;118072;31
2022/06/28 05:12:23;;;;;;;3.65;3.35;;;21.50;59.80;;;;;;20502;6854;308697;31
2022/06/28 05:14:48;;;;;;;5.97;3.07;;;21.70;59.60;;;;;;20716;6854;117114;31
2022/06/28 05:17:14;;;;;;;3.67;3.00;;;21.80;60.00;;;;;;20510;6854;280501;31
2022/06/28 05:19:39;;;;;;;5.35;3.15;;;22.00;59.80;;;;;;20466;6854;308702;31
2022/06/28 05:22:08;;;;;;;3.23;2.90;;;22.40;58.30;;;;;;20485;6854;311000;31
2022/06/28 05:24:34;;;;;;;3.30;2.77;;;22.70;57.60;;;;;;20702;6854;117512;31
2022/06/28 05:26:59;;;;;;;3.20;2.37;;;22.70;58.20;;;;;;20725;6854;117522;31
2022/06/28 05:29:26;;;;;;;3.25;1.90;;;22.60;58.50;;;;;;20719;6854;120313;31
2022/06/28 05:31:52;;;;;;;2.70;2.20;;;22.50;58.90;;;;;;20460;6854;294777;31
2022/06/28 05:34:17;;;;;;;2.30;2.10;;;22.70;56.00;;;;;;20710;6854;116788;31
2022/06/28 05:36:43;;;;;;;2.20;2.10;;;22.90;56.50;;;;;;20506;6854;279855;31
2022/06/28 05:39:09;;;;;;;3.00;2.53;;;23.00;54.70;;;;;;20512;6854;312105;31
2022/06/28 05:41:35;;;;;;;2.15;2.03;;;23.20;53.90;;;;;;20476;6854;279865;31
2022/06/28 05:44:01;;;;;;;2.30;2.20;;;23.40;53.70;;;;;;20475;6854;309103;31
2022/06/28 05:46:26;;;;;;;2.50;2.30;;;23.50;53.30;;;;;;20492;6854;278654;31
2022/06/28 05:48:52;;;;;;;2.90;1.90;;;23.50;53.20;;;;;;20710;6854;117161;31
2022/06/28 05:51:17;;;;;;;2.50;2.40;;;23.20;54.10;;;;;;20479;6854;308767;31
2022/06/28 05:53:43;;;;;;;2.40;2.30;;;23.00;54.20;;;;;;20680;6854;118545;31
2022/06/28 05:56:08;;;;;;;5.32;2.80;;;22.80;55.10;;;;;;20496;6854;279321;31
2022/06/28 05:58:34;;;;;;;3.57;3.00;;;22.80;54.20;;;;;;20496;6854;303149;31
2022/06/28 06:01:00;;;;;;;2.70;2.60;;;22.90;54.30;;;;;;20703;6854;117883;31
2022/06/28 06:03:28;;;;;;;2.40;2.30;;;22.80;55.20;;;;;;20497;6854;280150;31
2022/06/28 06:05:54;;;;;;;2.50;2.40;;;22.90;55.40;;;;;;20699;6854;117266;31
2022/06/28 06:08:20;;;;;;;3.20;2.47;;;22.80;56.60;;;;;;20711;6854;118356;31
2022/06/28 06:10:46;;;;;;;3.15;2.85;;;22.70;56.60;;;;;;20495;6853;307280;31
2022/06/28 06:13:13;;;;;;;3.07;2.90;;;22.80;55.10;;;;;;20719;6854;117448;31
2022/06/28 06:15:38;;;;;;;3.27;3.03;;;22.80;55.70;;;;;;20701;6854;117345;31
2022/06/28 06:18:04;;;;;;;3.58;3.37;;;22.50;56.20;;;;;;20514;6854;308537;31
2022/06/28 06:20:29;;;;;;;3.23;3.03;;;22.70;55.30;;;;;;20503;6854;308852;31
2022/06/28 06:22:55;;;;;;;2.93;2.83;;;23.00;54.20;;;;;;20720;6854;117328;31
2022/06/28 06:25:21;;;;;;;3.55;3.35;;;22.90;54.60;;;;;;20512;6854;279766;31
2022/06/28 06:27:46;;;;;;;3.78;3.47;;;23.00;54.10;;;;;;20486;6854;311481;31
2022/06/28 06:30:12;;;;;;;3.97;3.67;;;23.20;54.10;;;;;;20502;6854;310941;31
2022/06/28 06:32:37;;;;;;;3.67;3.47;;;23.40;53.00;;;;;;20514;6854;290489;31
2022/06/28 06:35:03;;;;;;;4.00;3.80;;;23.50;52.50;;;;;;20702;6854;117202;31
2022/06/28 06:37:29;;;;;;;4.17;3.97;;;23.30;53.50;;;;;;20702;6854;117618;31
2022/06/28 06:39:55;;;;;;;3.93;3.73;;;22.90;54.20;;;;;;20717;6854;117751;31
2022/06/28 06:42:21;;;;;;;4.43;4.13;;;22.60;54.90;;;;;;20641;6854;117285;31
2022/06/28 06:44:48;;;;;;;3.90;3.70;;;22.30;55.40;;;;;;20662;6854;120043;31
2022/06/28 06:47:13;;;;;;;4.90;4.50;;;22.00;56.20;;;;;;20485;6854;303995;31
2022/06/28 06:49:39;;;;;;;4.50;4.20;;;22.10;56.40;;;;;;20645;6854;120204;31
2022/06/28 06:52:04;;;;;;;5.55;5.15;;;22.00;56.40;;;;;;20482;6854;278891;31
2022/06/28 06:54:30;;;;;;;5.62;5.20;;;22.00;56.30;;;;;;20492;6854;341111;31
2022/06/28 06:56:55;;;;;;;5.50;5.17;;;22.20;56.00;;;;;;20701;6854;117606;31
2022/06/28 06:59:21;;;;;;;6.95;6.55;;;22.00;56.10;;;;;;20490;6854;309865;31
2022/06/28 07:01:47;;;;;;;6.73;6.30;;;21.90;56.30;;;;;;20686;6854;117894;31
2022/06/28 07:04:14;;;;;;;7.03;6.63;;;21.70;56.80;;;;;;20703;6854;122280;31
2022/06/28 07:06:38;;;;;;;8.73;8.17;;;21.30;57.60;;;;;;20532;6854;307457;31
2022/06/28 07:09:03;;;;;;;9.00;8.30;;;21.30;58.20;;;;;;20730;6854;118599;31
2022/06/28 07:11:30;;;;;;;9.53;8.47;;;21.20;58.40;;;;;;20675;6854;118372;31
2022/06/28 07:13:56;;;;;;;10.23;9.60;;;20.90;58.90;;;;;;20495;6854;309802;31
2022/06/28 07:16:21;;;;;;;9.40;8.50;;;21.00;59.00;;;;;;20704;6854;118123;31
2022/06/28 07:18:47;;;;;;;9.07;8.32;;;20.90;59.30;;;;;;20494;6854;279820;31
2022/06/28 07:21:12;;;;;;;9.90;9.30;;;21.10;59.50;;;;;;20483;6853;309373;31
2022/06/28 07:23:38;;;;;;;9.43;8.93;;;21.40;58.80;;;;;;20478;6853;308946;31
2022/06/28 07:26:03;;;;;;;9.83;9.13;;;21.70;58.40;;;;;;20707;6854;117406;31
2022/06/28 07:28:29;;;;;;;9.40;8.80;;;21.70;58.60;;;;;;20490;6854;308864;31
2022/06/28 07:30:55;;;;;;;9.50;8.90;;;21.80;57.90;;;;;;20491;6854;344316;31
2022/06/28 07:33:20;;;;;;;9.80;9.10;;;22.20;57.70;;;;;;20497;6854;280318;31
2022/06/28 07:35:46;;;;;;;8.23;7.80;;;22.80;57.60;;;;;;20690;6854;120164;31
2022/06/28 07:38:11;;;;;;;9.10;8.40;;;23.10;58.00;;;;;;20497;6854;279149;31
2022/06/28 07:40:37;;;;;;;8.77;8.27;;;23.50;56.50;;;;;;20688;6854;118548;31
2022/06/28 07:43:02;;;;;;;8.30;7.80;;;23.90;56.50;;;;;;20495;6854;280312;31
2022/06/28 07:45:28;;;;;;;6.77;6.37;;;24.30;54.10;;;;;;20682;6854;122137;31
2022/06/28 07:47:53;;;;;;;7.75;7.35;;;24.30;54.60;;;;;;20493;6854;311034;31
2022/06/28 07:53:05;;;;;;;7.18;6.78;;;25.20;52.00;;;;;;20496;6854;311984;31
2022/06/28 07:55:30;;;;;;;7.50;7.00;;;25.50;50.80;;;;;;20466;6854;309267;31
2022/06/28 07:57:56;;;;;;;7.77;7.27;;;25.60;50.30;;;;;;20490;6854;301003;31
2022/06/28 08:00:21;;;;;;;6.77;6.27;;;25.70;49.30;;;;;;20696;6854;116867;31
2022/06/28 08:02:47;;;;;;;68.93;54.17;;;25.30;50.60;;;;;;20479;6854;304209;31
2022/06/28 08:05:12;;;;;;;21.60;19.07;;;25.10;50.40;;;;;;20687;6854;117501;31
2022/06/28 08:07:38;;;;;;;7.03;6.37;;;24.80;51.50;;;;;;20684;6854;117425;31
2022/06/28 08:10:04;;;;;;;6.00;5.70;;;24.60;52.80;;;;;;20490;6854;281206;31
2022/06/28 08:12:29;;;;;;;5.90;5.40;;;24.80;51.80;;;;;;20494;6854;308499;31
2022/06/28 08:14:55;;;;;;;4.60;4.40;;;25.10;51.20;;;;;;20706;6854;117165;31
2022/06/28 08:17:20;;;;;;;4.50;4.30;;;25.30;51.90;;;;;;20717;6854;117134;31
2022/06/28 08:19:46;;;;;;;4.93;4.62;;;25.30;52.20;;;;;;20477;6854;309611;31
2022/06/28 08:22:11;;;;;;;4.72;4.53;;;25.60;48.80;;;;;;20706;6854;118645;31
2022/06/28 08:24:37;;;;;;;4.87;4.50;;;25.70;49.50;;;;;;20719;6854;119906;31
2022/06/28 08:27:03;;;;;;;5.53;5.23;;;25.60;50.50;;;;;;20492;6854;281886;31
2022/06/28 08:29:30;;;;;;;4.80;4.50;;;25.70;48.50;;;;;;20478;6854;279850;31
2022/06/28 08:31:54;;;;;;;5.87;5.45;;;25.90;49.10;;;;;;20480;6854;322162;31
2022/06/28 08:34:19;;;;;;;5.93;5.53;;;26.10;48.70;;;;;;20705;6853;116743;31
2022/06/28 08:36:45;;;;;;;6.35;6.03;;;26.00;49.60;;;;;;20486;6854;312246;31
2022/06/28 08:39:11;;;;;;;5.57;5.20;;;25.90;47.90;;;;;;20703;6854;117582;31
2022/06/28 08:41:36;;;;;;;5.73;5.33;;;25.70;49.00;;;;;;20681;6854;120255;31
2022/06/28 08:44:02;;;;;;;6.32;5.93;;;25.40;50.00;;;;;;20486;6854;309715;31
2022/06/28 08:46:27;;;;;;;5.90;5.50;;;25.50;49.00;;;;;;20701;6854;116809;31
2022/06/28 08:48:53;;;;;;;5.63;5.30;;;25.40;50.00;;;;;;20695;6854;122160;31
2022/06/28 08:51:18;;;;;;;5.23;4.93;;;25.20;50.30;;;;;;20679;6854;118308;31
2022/06/28 08:53:44;;;;;;;6.05;5.45;;;25.00;50.70;;;;;;20474;6854;278487;31
2022/06/28 08:56:10;;;;;;;5.70;5.30;;;25.20;49.00;;;;;;20691;6854;116282;31
2022/06/28 08:58:35;;;;;;;5.37;5.07;;;25.20;49.80;;;;;;20505;6854;279787;31
2022/06/28 09:01:01;;;;;;;6.30;5.90;;;25.20;49.10;;;;;;20481;6854;279186;31
2022/06/28 09:03:26;;;;;;;6.10;5.80;;;25.40;48.10;;;;;;20505;6854;313330;31
2022/06/28 09:05:52;;;;;;;5.75;5.37;;;25.50;48.00;;;;;;20491;6854;279297;31
2022/06/28 09:08:17;;;;;;;4.93;4.63;;;25.60;48.40;;;;;;20710;6854;116969;31
2022/06/28 09:10:44;;;;;;;4.83;4.53;;;25.40;49.20;;;;;;20712;6854;120741;31
2022/06/28 09:13:10;;;;;;;4.77;4.47;;;25.00;50.10;;;;;;20701;6854;117152;31
2022/06/28 09:15:58;;;;;;;5.00;4.80;;;24.80;50.80;;;;;;20651;6854;121738;31
2022/06/28 09:18:27;;;;;;;6.25;5.87;;;24.60;51.00;;;;;;20472;6854;304115;31
2022/06/28 09:20:52;;;;;;;5.90;5.50;;;24.70;49.80;;;;;;20329;6854;317855;31
2022/06/28 09:23:27;;;;;;;4.83;4.53;;;24.90;49.20;;;;;;20682;6854;116946;31
2022/06/28 09:25:53;;;;;;;5.40;5.10;;;24.90;50.30;;;;;;20457;6854;309293;31
2022/06/28 09:28:22;;;;;;;4.93;4.63;;;25.00;48.90;;;;;;20688;6854;117201;31
2022/06/28 09:30:47;;;;;;;5.20;4.80;;;25.00;49.70;;;;;;20462;6854;308970;31
2022/06/28 09:33:13;;;;;;;5.68;4.57;;;25.10;48.90;;;;;;20480;6854;310335;31
2022/06/28 09:35:38;;;;;;;5.30;4.80;;;25.40;49.30;;;;;;20410;6854;279687;31
2022/06/28 09:38:04;;;;;;;4.13;3.93;;;25.70;47.50;;;;;;20701;6854;117495;31
2022/06/28 09:40:31;;;;;;;3.80;3.60;;;25.60;49.10;;;;;;20695;6854;117108;31
2022/06/28 09:43:09;;;;;;;4.50;4.30;;;25.50;49.10;;;;;;20691;6854;117658;31
2022/06/28 09:45:35;;;;;;;5.18;4.87;;;25.50;49.80;;;;;;20453;6852;282522;31
2022/06/28 09:48:01;;;;;;;4.43;4.12;;;25.70;47.30;;;;;;20461;6854;309268;31
2022/06/28 09:50:26;;;;;;;4.83;4.57;;;26.00;47.30;;;;;;20693;6854;117511;31
2022/06/28 09:52:52;;;;;;;4.50;4.30;;;26.10;48.10;;;;;;20485;6854;309027;31
2022/06/28 09:55:17;;;;;;;4.37;4.17;;;26.20;46.30;;;;;;20716;6854;119903;31
2022/06/28 09:57:44;;;;;;;3.80;3.60;;;26.20;47.00;;;;;;20703;6854;119773;31
2022/06/28 10:00:09;;;;;;;3.90;3.70;;;26.00;47.50;;;;;;20494;6854;308377;31
2022/06/28 10:02:34;;;;;;;3.80;3.57;;;26.10;44.60;;;;;;20509;6854;278851;31
2022/06/28 10:05:01;;;;;;;3.90;3.80;;;26.20;45.60;;;;;;20717;6854;118085;31
2022/06/28 10:07:25;;;;;;;3.80;3.60;;;26.30;46.50;;;;;;20711;6854;117341;31
2022/06/28 10:09:51;;;;;;;4.05;3.85;;;26.10;47.30;;;;;;20482;6854;310081;31
2022/06/28 10:15:02;;;;;;;3.40;3.20;;;26.50;46.30;;;;;;20719;6854;117138;31
2022/06/28 10:17:44;;;;;;;2.97;2.80;;;26.70;47.30;;;;;;20477;6854;309646;31
2022/06/28 10:20:09;;;;;;;3.23;3.03;;;26.90;43.90;;;;;;20450;6854;279240;31
2022/06/28 10:22:35;;;;;;;2.95;2.75;;;27.10;44.00;;;;;;20483;6854;340765;31
2022/06/28 10:25:01;;;;;;;3.07;2.97;;;27.30;43.00;;;;;;20702;6854;118386;31
2022/06/28 10:27:26;;;;;;;3.05;2.95;;;27.10;44.20;;;;;;20480;6854;281238;31
2022/06/28 10:29:58;;;;;;;3.10;3.00;;;27.10;43.40;;;;;;20682;6854;117424;31
2022/06/28 10:32:40;;;;;;;2.73;2.63;;;27.00;44.40;;;;;;20688;6854;117522;31
2022/06/28 10:35:06;;;;;;;2.63;2.53;;;26.90;45.30;;;;;;20453;6854;119980;31
2022/06/28 10:37:32;;;;;;;2.63;2.43;;;26.70;45.80;;;;;;20685;6854;117341;31
2022/06/28 10:40:23;;;;;;;2.90;2.70;;;26.60;46.20;;;;;;20494;6854;279866;31
2022/06/28 10:42:52;;;;;;;2.53;2.40;;;26.80;44.10;;;;;;20478;6854;309994;31
2022/06/28 10:45:21;;;;;;;2.70;2.60;;;27.20;44.60;;;;;;20717;6854;117440;31
2022/06/28 10:48:09;;;;;;;2.60;2.40;;;27.40;44.60;;;;;;20711;6854;119363;31
2022/06/28 10:50:58;;;;;;;3.03;2.60;;;27.20;45.00;;;;;;20722;6854;117255;31
2022/06/28 10:53:23;;;;;;;2.73;2.57;;;27.10;45.80;;;;;;20474;6854;306551;31
2022/06/28 10:56:12;;;;;;;2.37;2.17;;;27.20;43.20;;;;;;20673;6854;118305;31
2022/06/28 10:58:57;;;;;;;2.30;2.10;;;27.20;44.30;;;;;;20511;6853;279469;31
2022/06/28 11:01:39;;;;;;;2.17;2.07;;;27.40;42.30;;;;;;20713;6854;117124;31
2022/06/28 11:04:19;;;;;;;2.60;2.40;;;27.30;43.90;;;;;;20512;6854;298148;31
2022/06/28 11:06:44;;;;;;;2.40;2.22;;;27.40;43.30;;;;;;20505;6854;338140;31
2022/06/28 11:09:30;;;;;;;2.00;1.90;;;27.50;41.70;;;;;;20715;6854;116330;31
2022/06/28 11:12:15;;;;;;;1.83;1.80;;;27.40;43.00;;;;;;20106;6854;117339;31
2022/06/28 11:14:44;;;;;;;2.00;1.90;;;27.20;44.10;;;;;;20718;6854;116897;31
2022/06/28 11:17:14;;;;;;;2.00;1.90;;;27.00;44.50;;;;;;20718;6854;117364;31
2022/06/28 11:19:38;;;;;;;2.20;2.10;;;26.90;45.10;;;;;;20453;6854;310191;31
2022/06/28 11:22:04;;;;;;;2.50;2.40;;;27.00;42.70;;;;;;20494;6854;340555;31
2022/06/28 11:24:29;;;;;;;2.07;2.07;;;27.10;42.10;;;;;;20709;6854;120180;31
2022/06/28 11:29:44;;;;;;;2.20;1.97;;;26.70;44.00;;;;;;20690;6854;146014;31
2022/06/28 11:32:15;;;;;;;3.10;2.03;;;26.40;45.10;;;;;;20478;6854;308358;31
2022/06/28 11:34:41;;;;;;;4.17;2.27;;;26.60;43.90;;;;;;20690;6854;117367;31
2022/06/28 11:37:08;;;;;;;2.33;2.07;;;26.60;44.20;;;;;;20716;6854;120771;31
2022/06/28 11:39:32;;;;;;;2.00;1.90;;;26.50;44.90;;;;;;20467;6854;308593;31
2022/06/28 11:41:58;;;;;;;2.25;2.15;;;26.60;43.90;;;;;;20491;6854;309040;31
2022/06/28 11:44:23;;;;;;;2.28;2.17;;;27.00;43.60;;;;;;20501;6854;309357;31
2022/06/28 11:46:52;;;;;;;2.10;2.00;;;27.30;43.50;;;;;;20708;6854;117432;31
2022/06/28 11:49:30;;;;;;;1.92;1.87;;;27.30;44.00;;;;;;20467;6854;308881;31
2022/06/28 11:51:56;;;;;;;1.83;1.70;;;27.40;42.70;;;;;;20648;6854;115346;31
2022/06/28 11:54:21;;;;;;;1.90;1.80;;;27.20;43.80;;;;;;20716;6854;67919;31
2022/06/28 11:56:47;;;;;;;2.22;2.08;;;27.10;44.30;;;;;;20494;6854;309166;31
2022/06/28 11:59:13;;;;;;;1.70;1.60;;;27.30;42.50;;;;;;20484;6854;311199;31
2022/06/28 12:01:38;;;;;;;1.73;1.63;;;27.50;41.70;;;;;;20683;6854;117244;31
2022/06/28 12:04:06;;;;;;;1.73;1.62;;;27.50;42.20;;;;;;20494;6854;279618;31
2022/06/28 12:06:29;;;;;;;1.60;1.60;;;27.60;40.70;;;;;;20491;6854;281378;31
2022/06/28 12:09:02;;;;;;;1.62;1.52;;;27.80;40.30;;;;;;20494;6853;341224;31
2022/06/28 12:11:37;;;;;;;1.80;1.70;;;27.90;40.30;;;;;;20696;6854;116894;31
2022/06/28 12:14:06;;;;;;;1.40;1.40;;;27.80;41.60;;;;;;20700;6854;117408;31
2022/06/28 12:16:40;;;;;;;2.20;1.70;;;27.60;42.60;;;;;;20499;6854;279228;31
2022/06/28 12:19:06;;;;;;;2.43;1.50;;;27.70;41.60;;;;;;20703;6854;117662;31
2022/06/28 12:21:32;;;;;;;1.37;1.37;;;27.70;42.60;;;;;;20689;6854;117688;31
2022/06/28 12:23:57;;;;;;;1.67;1.58;;;27.50;42.90;;;;;;20494;6854;312256;31
2022/06/28 12:26:43;;;;;;;1.77;1.52;;;27.70;41.50;;;;;;20499;6854;310726;31
2022/06/28 12:29:08;;;;;;;4.77;1.77;;;28.00;40.90;;;;;;20485;6854;279796;31
2022/06/28 12:31:34;;;;;;;1.53;1.43;;;28.20;40.00;;;;;;20680;6854;117440;31
2022/06/28 12:33:59;;;;;;;1.80;1.70;;;28.10;41.00;;;;;;20487;6854;279596;31
2022/06/28 12:36:25;;;;;;;5.63;1.70;;;28.20;40.00;;;;;;20682;6854;117837;31
2022/06/28 12:38:51;;;;;;;1.60;1.50;;;28.10;41.40;;;;;;20480;6854;309016;31
2022/06/28 12:41:17;;;;;;;1.60;1.50;;;28.20;40.20;;;;;;20479;6854;338518;31
2022/06/28 12:43:42;;;;;;;1.60;1.50;;;28.50;40.20;;;;;;20694;6854;118422;31
2022/06/28 12:46:08;;;;;;;1.70;1.60;;;28.30;41.00;;;;;;20698;6854;118304;31
2022/06/28 12:48:34;;;;;;;1.57;1.47;;;28.00;41.40;;;;;;20697;6854;122467;31
2022/06/28 12:51:00;;;;;;;2.73;1.70;;;27.80;42.00;;;;;;20687;6854;117451;31
2022/06/28 12:53:26;;;;;;;1.60;1.50;;;27.50;42.30;;;;;;20693;6854;117597;31
2022/06/28 12:55:51;;;;;;;1.80;1.70;;;27.40;42.80;;;;;;20676;6854;117137;31
2022/06/28 12:58:17;;;;;;;1.85;1.75;;;27.30;43.00;;;;;;20495;6854;309971;31
2022/06/28 13:00:44;;;;;;;1.43;1.43;;;27.50;41.60;;;;;;20701;6854;116726;31
2022/06/28 13:03:08;;;;;;;2.25;1.73;;;27.50;42.00;;;;;;20476;6854;308463;31
2022/06/28 13:05:34;;;;;;;1.73;1.63;;;27.60;41.50;;;;;;20674;6854;117194;31
2022/06/28 13:08:01;;;;;;;1.70;1.60;;;27.50;41.40;;;;;;20486;6854;295358;31
2022/06/28 13:10:25;;;;;;;1.60;1.45;;;27.50;40.00;;;;;;20483;6854;309563;31